createdAt,value
2022-09-05T00:00:01.895Z,17.40
2022-09-05T00:02:49.184Z,17.40
2022-09-05T00:05:41.282Z,17.40
2022-09-05T00:08:25.436Z,17.30
2022-09-05T00:11:39.489Z,17.30
2022-09-05T00:14:09.132Z,17.30
2022-09-05T00:16:58.045Z,17.30
2022-09-05T00:24:19.943Z,17.20
2022-09-05T00:24:28.566Z,17.10
2022-09-05T00:26:00.572Z,17.10
2022-09-05T00:28:40.766Z,17.10
2022-09-05T00:31:54.898Z,17.10
2022-09-05T00:34:38.786Z,17.10
2022-09-05T00:37:29.157Z,17.10
2022-09-05T00:40:18.576Z,17.10
2022-09-05T00:42:51.185Z,17.10
2022-09-05T00:45:28.500Z,17.10
2022-09-05T00:48:05.065Z,17.10
2022-09-05T00:50:40.351Z,17.10
2022-09-05T00:53:15.939Z,17.10
2022-09-05T00:55:59.129Z,17.10
2022-09-05T00:58:57.921Z,17.00
2022-09-05T01:01:33.391Z,16.90
2022-09-05T01:04:17.051Z,16.90
2022-09-05T01:07:01.994Z,16.80
2022-09-05T01:09:51.267Z,16.80
2022-09-05T01:12:36.126Z,16.70
2022-09-05T01:15:20.798Z,16.80
2022-09-05T01:18:02.244Z,16.70
2022-09-05T01:20:41.883Z,16.70
2022-09-05T01:23:25.991Z,16.70
2022-09-05T01:26:07.745Z,16.70
2022-09-05T01:29:16.558Z,16.70
2022-09-05T01:31:38.765Z,16.70
2022-09-05T01:34:16.904Z,16.80
2022-09-05T01:37:05.153Z,16.80
2022-09-05T01:40:12.589Z,16.80
2022-09-05T01:42:38.879Z,16.70
2022-09-05T01:45:17.957Z,16.70
2022-09-05T01:47:53.162Z,16.60
2022-09-05T01:50:35.955Z,16.60
2022-09-05T01:53:25.825Z,16.50
2022-09-05T01:56:30.791Z,16.50
2022-09-05T01:59:18.080Z,16.50
2022-09-05T02:02:06.426Z,16.50
2022-09-05T02:04:52.620Z,16.40
2022-09-05T02:07:35.198Z,16.40
2022-09-05T02:10:31.177Z,16.40
2022-09-05T02:13:11.459Z,16.40
2022-09-05T02:15:59.299Z,16.30
2022-09-05T02:18:45.265Z,16.30
2022-09-05T02:21:22.639Z,16.30
2022-09-05T02:24:07.934Z,16.30
2022-09-05T02:26:47.426Z,16.20
2022-09-05T02:29:28.828Z,16.20
2022-09-05T02:32:04.752Z,16.10
2022-09-05T02:34:42.080Z,16.10
2022-09-05T02:37:37.145Z,16.10
2022-09-05T02:43:41.008Z,16.10
2022-09-05T02:45:12.929Z,16.10
2022-09-05T02:46:13.792Z,16.10
2022-09-05T02:48:54.347Z,16.10
2022-09-05T02:57:24.270Z,16.00
2022-09-05T02:57:35.594Z,16.00
2022-09-05T02:58:05.332Z,16.00
2022-09-05T03:00:20.182Z,16.00
2022-09-05T03:03:19.587Z,15.90
2022-09-05T03:05:53.250Z,15.90
2022-09-05T03:08:38.229Z,15.80
2022-09-05T03:11:37.709Z,15.90
2022-09-05T03:14:44.621Z,15.80
2022-09-05T03:17:42.660Z,15.80
2022-09-05T03:20:46.999Z,15.70
2022-09-05T03:24:02.474Z,15.70
2022-09-05T03:27:01.089Z,15.70
2022-09-05T03:29:58.766Z,15.60
2022-09-05T03:33:10.709Z,15.60
2022-09-05T03:36:18.916Z,15.50
2022-09-05T03:39:26.537Z,15.50
2022-09-05T03:42:15.828Z,15.50
2022-09-05T03:45:06.826Z,15.50
2022-09-05T03:48:02.379Z,15.50
2022-09-05T03:57:07.465Z,15.50
2022-09-05T03:57:15.838Z,15.50
2022-09-05T03:57:42.795Z,15.50
2022-09-05T04:00:21.928Z,15.50
2022-09-05T04:08:07.091Z,15.40
2022-09-05T04:08:17.304Z,15.50
2022-09-05T04:08:52.671Z,15.40
2022-09-05T04:11:30.701Z,15.50
2022-09-05T04:14:03.874Z,15.30
2022-09-05T04:16:43.511Z,15.30
2022-09-05T04:19:18.166Z,15.30
2022-09-05T04:21:53.765Z,15.30
2022-09-05T04:24:29.598Z,15.30
2022-09-05T04:27:36.357Z,15.30
2022-09-05T04:30:39.462Z,15.30
2022-09-05T04:33:20.473Z,15.30
2022-09-05T04:35:59.675Z,15.30
2022-09-05T04:38:40.481Z,15.30
2022-09-05T04:41:11.940Z,15.30
2022-09-05T04:43:46.170Z,15.30
2022-09-05T04:46:24.670Z,15.20
2022-09-05T04:49:01.268Z,15.20
2022-09-05T04:52:02.436Z,15.20
2022-09-05T04:54:37.995Z,15.30
2022-09-05T04:57:19.800Z,15.20
2022-09-05T05:05:53.776Z,15.20
2022-09-05T05:06:05.309Z,15.20
2022-09-05T05:06:11.040Z,15.20
2022-09-05T05:08:47.873Z,15.20
2022-09-05T05:16:29.853Z,15.20
2022-09-05T05:18:08.471Z,15.20
2022-09-05T05:18:12.789Z,15.20
2022-09-05T05:20:41.830Z,15.20
2022-09-05T05:23:07.911Z,15.30
2022-09-05T05:25:49.267Z,15.30
2022-09-05T05:28:25.289Z,15.30
2022-09-05T05:31:01.494Z,15.40
2022-09-05T05:33:34.773Z,15.40
2022-09-05T05:36:08.443Z,15.40
2022-09-05T05:38:44.882Z,15.40
2022-09-05T05:41:22.490Z,15.40
2022-09-05T05:43:52.254Z,15.50
2022-09-05T05:46:31.199Z,15.50
2022-09-05T05:49:17.968Z,15.50
2022-09-05T05:52:05.144Z,15.60
2022-09-05T05:54:47.961Z,15.60
2022-09-05T05:57:35.122Z,15.70
2022-09-05T06:00:14.901Z,15.80
2022-09-05T06:03:26.614Z,15.80
2022-09-05T06:06:20.697Z,15.90
2022-09-05T06:14:37.485Z,16.00
2022-09-05T06:15:05.621Z,16.10
2022-09-05T06:16:34.161Z,16.20
2022-09-05T06:22:04.751Z,16.40
2022-09-05T06:23:03.601Z,16.60
2022-09-05T06:25:52.803Z,16.80
2022-09-05T06:28:30.643Z,16.90
2022-09-05T06:31:30.166Z,17.10
2022-09-05T06:34:29.099Z,17.20
2022-09-05T06:37:11.389Z,17.30
2022-09-05T06:39:58.682Z,17.50
2022-09-05T06:42:42.621Z,17.70
2022-09-05T06:45:28.083Z,17.90
2022-09-05T06:48:06.130Z,18.10
2022-09-05T06:51:19.680Z,18.20
2022-09-05T06:54:07.660Z,18.30
2022-09-05T06:57:15.500Z,18.60
2022-09-05T07:00:21.691Z,18.80
2022-09-05T07:03:02.944Z,19.00
2022-09-05T07:05:44.442Z,19.10
2022-09-05T07:08:39.288Z,19.30
2022-09-05T07:11:15.780Z,19.50
2022-09-05T07:13:55.351Z,19.60
2022-09-05T07:16:37.875Z,19.80
2022-09-05T07:19:27.278Z,19.90
2022-09-05T07:22:47.133Z,20.10
2022-09-05T07:25:18.389Z,20.20
2022-09-05T07:28:25.730Z,20.30
2022-09-05T07:30:49.535Z,20.40
2022-09-05T07:33:21.352Z,20.60
2022-09-05T07:35:52.014Z,20.80
2022-09-05T07:38:35.279Z,20.90
2022-09-05T07:41:22.055Z,21.00
2022-09-05T07:43:55.108Z,21.20
2022-09-05T07:46:27.400Z,21.40
2022-09-05T07:49:02.855Z,21.50
2022-09-05T07:56:49.937Z,21.70
2022-09-05T07:57:09.779Z,21.80
2022-09-05T07:57:30.107Z,21.90
2022-09-05T08:00:05.275Z,21.90
2022-09-05T08:02:33.506Z,22.00
2022-09-05T08:05:05.428Z,22.10
2022-09-05T08:07:49.636Z,22.30
2022-09-05T08:10:35.911Z,22.30
2022-09-05T08:13:24.425Z,22.40
2022-09-05T08:16:10.797Z,22.50
2022-09-05T08:18:50.265Z,22.70
2022-09-05T08:21:27.580Z,22.80
2022-09-05T08:24:13.828Z,22.90
2022-09-05T08:26:47.211Z,23.00
2022-09-05T08:29:27.199Z,23.10
2022-09-05T08:32:01.908Z,23.30
2022-09-05T08:34:45.167Z,23.40
2022-09-05T08:37:20.940Z,23.50
2022-09-05T08:39:59.089Z,23.50
2022-09-05T08:43:30.899Z,23.40
2022-09-05T08:46:45.031Z,23.70
2022-09-05T08:48:53.979Z,23.70
2022-09-05T08:51:30.155Z,23.80
2022-09-05T08:54:17.078Z,24.10
2022-09-05T08:56:58.417Z,24.10
2022-09-05T08:59:36.743Z,24.20
2022-09-05T09:02:58.284Z,24.10
2022-09-05T09:06:13.710Z,24.20
2022-09-05T09:08:55.715Z,24.10
2022-09-05T09:11:34.277Z,24.30
2022-09-05T09:14:36.787Z,24.40
2022-09-05T09:17:20.465Z,24.40
2022-09-05T09:19:54.008Z,24.50
2022-09-05T09:22:35.909Z,24.50
2022-09-05T09:25:14.915Z,24.50
2022-09-05T09:28:49.084Z,24.30
2022-09-05T09:31:46.664Z,24.50
2022-09-05T09:34:47.443Z,24.70
2022-09-05T09:37:51.766Z,24.90
2022-09-05T09:40:52.276Z,25.10
2022-09-05T09:43:33.188Z,25.30
2022-09-05T09:46:17.872Z,25.30
2022-09-05T09:49:09.563Z,25.30
2022-09-05T09:52:22.104Z,25.30
2022-09-05T09:55:41.163Z,25.30
2022-09-05T09:58:43.115Z,25.40
2022-09-05T10:01:36.688Z,25.60
2022-09-05T10:10:37.856Z,25.80
2022-09-05T10:10:58.214Z,26.00
2022-09-05T10:14:49.233Z,26.30
2022-09-05T10:18:09.232Z,26.50
2022-09-05T10:21:16.044Z,26.60
2022-09-05T10:24:03.990Z,26.50
2022-09-05T10:27:11.320Z,26.40
2022-09-05T10:30:07.217Z,26.40
2022-09-05T10:35:10.838Z,26.80
2022-09-05T10:35:52.375Z,26.80
2022-09-05T10:38:32.766Z,27.10
2022-09-05T10:41:22.613Z,27.40
2022-09-05T10:43:55.552Z,27.30
2022-09-05T10:46:50.271Z,27.30
2022-09-05T10:49:30.015Z,27.50
2022-09-05T10:52:18.426Z,27.10
2022-09-05T10:55:14.954Z,27.10
2022-09-05T10:57:57.945Z,27.00
2022-09-05T11:02:27.589Z,26.80
2022-09-05T11:03:45.336Z,26.80
2022-09-05T11:06:16.636Z,27.10
2022-09-05T11:09:00.986Z,27.20
2022-09-05T11:11:35.146Z,27.30
2022-09-05T11:14:26.192Z,27.40
2022-09-05T11:17:00.191Z,27.60
2022-09-05T11:19:37.222Z,27.60
2022-09-05T11:22:22.259Z,27.80
2022-09-05T11:24:57.145Z,27.80
2022-09-05T11:27:34.008Z,28.00
2022-09-05T11:30:06.985Z,28.10
2022-09-05T11:36:44.327Z,28.20
2022-09-05T11:39:56.731Z,28.30
2022-09-05T11:40:00.164Z,28.30
2022-09-05T11:42:33.179Z,28.50
2022-09-05T11:45:38.886Z,28.70
2022-09-05T11:48:26.322Z,28.70
2022-09-05T11:51:12.449Z,28.70
2022-09-05T11:53:59.669Z,28.60
2022-09-05T11:57:32.138Z,28.60
2022-09-05T12:00:33.125Z,28.50
2022-09-05T12:03:59.027Z,28.50
2022-09-05T12:06:57.254Z,28.60
2022-09-05T12:09:37.842Z,28.30
2022-09-05T12:12:38.556Z,28.20
2022-09-05T12:15:25.696Z,28.20
2022-09-05T12:18:12.635Z,28.30
2022-09-05T12:20:57.191Z,28.30
2022-09-05T12:24:12.746Z,28.50
2022-09-05T12:27:36.441Z,28.60
2022-09-05T12:29:37.367Z,28.60
2022-09-05T12:33:28.343Z,28.50
2022-09-05T12:36:12.758Z,28.30
2022-09-05T12:40:08.662Z,28.50
2022-09-05T12:41:36.536Z,28.80
2022-09-05T12:44:42.556Z,29.30
2022-09-05T12:47:18.713Z,29.50
2022-09-05T12:50:02.607Z,29.60
2022-09-05T12:52:42.560Z,29.30
2022-09-05T12:55:20.605Z,29.60
2022-09-05T13:02:55.893Z,29.30
2022-09-05T13:03:09.381Z,29.20
2022-09-05T13:04:05.882Z,29.50
2022-09-05T13:06:39.224Z,29.50
2022-09-05T13:09:11.599Z,29.80
2022-09-05T13:14:52.984Z,30.00
2022-09-05T13:15:12.356Z,30.20
2022-09-05T13:17:48.759Z,30.20
2022-09-05T13:20:25.882Z,30.10
2022-09-05T13:22:55.597Z,30.00
2022-09-05T13:25:27.247Z,30.30
2022-09-05T13:28:03.465Z,30.30
2022-09-05T13:35:11.015Z,30.60
2022-09-05T13:38:03.038Z,30.50
2022-09-05T13:38:10.026Z,30.50
2022-09-05T13:39:14.009Z,30.80
2022-09-05T13:41:49.427Z,31.10
2022-09-05T13:44:25.591Z,31.00
2022-09-05T13:47:00.911Z,31.00
2022-09-05T13:49:37.206Z,31.40
2022-09-05T13:52:26.343Z,31.80
2022-09-05T13:55:10.667Z,32.10
2022-09-05T13:57:42.753Z,32.10
2022-09-05T14:00:52.430Z,31.90
2022-09-05T14:03:55.711Z,31.80
2022-09-05T14:10:38.191Z,31.90
2022-09-05T14:13:11.598Z,31.90
2022-09-05T14:15:52.240Z,31.80
2022-09-05T14:18:24.845Z,32.00
2022-09-05T14:21:16.596Z,32.10
2022-09-05T14:23:53.730Z,32.20
2022-09-05T14:26:30.889Z,32.20
2022-09-05T14:29:07.351Z,32.70
2022-09-05T14:36:58.547Z,33.30
2022-09-05T14:37:40.491Z,33.70
2022-09-05T14:38:09.258Z,33.70
2022-09-05T14:41:21.039Z,33.90
2022-09-05T14:44:24.662Z,34.10
2022-09-05T14:47:10.906Z,34.00
2022-09-05T14:50:27.747Z,34.00
2022-09-05T14:55:58.778Z,34.00
2022-09-05T15:02:44.134Z,34.10
2022-09-05T15:02:49.658Z,34.50
2022-09-05T15:04:45.673Z,35.30
2022-09-05T15:07:20.799Z,35.30
2022-09-05T15:12:17.099Z,35.60
2022-09-05T15:13:00.663Z,35.00
2022-09-05T15:15:31.691Z,34.80
2022-09-05T15:18:07.538Z,34.70
2022-09-05T15:20:38.467Z,34.80
2022-09-05T15:23:16.624Z,35.10
2022-09-05T15:25:48.246Z,35.20
2022-09-05T15:28:21.650Z,35.00
2022-09-05T15:31:01.112Z,35.40
2022-09-05T15:33:32.538Z,35.30
2022-09-05T15:36:01.814Z,35.20
2022-09-05T15:38:46.253Z,35.20
2022-09-05T15:41:24.355Z,35.00
2022-09-05T15:44:00.361Z,35.30
2022-09-05T15:46:51.425Z,35.60
2022-09-05T15:49:32.432Z,36.20
2022-09-05T15:52:03.887Z,37.40
2022-09-05T15:54:38.781Z,39.50
2022-09-05T15:57:17.489Z,41.80
2022-09-05T15:59:49.541Z,43.20
2022-09-05T16:02:22.296Z,43.70
2022-09-05T16:10:31.697Z,44.20
2022-09-05T16:10:49.020Z,41.00
2022-09-05T16:11:21.310Z,36.80
2022-09-05T16:13:38.071Z,37.10
2022-09-05T16:22:51.151Z,37.80
2022-09-05T16:23:15.915Z,34.70
2022-09-05T16:23:27.191Z,33.00
2022-09-05T16:25:09.805Z,31.90
2022-09-05T16:27:45.555Z,31.30
2022-09-05T16:30:20.867Z,30.80
2022-09-05T16:32:51.831Z,30.70
2022-09-05T16:35:24.902Z,30.40
2022-09-05T16:38:04.159Z,30.20
2022-09-05T16:40:35.863Z,30.00
2022-09-05T16:43:08.206Z,29.80
2022-09-05T16:45:45.760Z,29.50
2022-09-05T16:48:54.820Z,29.20
2022-09-05T16:51:35.849Z,28.90
2022-09-05T16:54:11.146Z,28.60
2022-09-05T16:56:43.146Z,28.40
2022-09-05T16:59:15.814Z,28.20
2022-09-05T17:02:06.323Z,28.00
2022-09-05T17:05:04.467Z,27.80
2022-09-05T17:07:58.737Z,27.60
2022-09-05T17:10:32.834Z,27.30
2022-09-05T17:13:02.903Z,27.20
2022-09-05T17:15:35.886Z,27.00
2022-09-05T17:18:22.565Z,26.80
2022-09-05T17:20:56.968Z,26.70
2022-09-05T17:29:27.401Z,26.50
2022-09-05T17:29:28.326Z,26.30
2022-09-05T17:31:14.536Z,26.10
2022-09-05T17:32:47.142Z,25.90
2022-09-05T17:35:20.340Z,25.80
2022-09-05T17:38:15.992Z,25.50
2022-09-05T17:41:17.142Z,25.30
2022-09-05T17:43:58.040Z,25.20
2022-09-05T17:46:29.765Z,25.00
2022-09-05T17:49:19.796Z,24.80
2022-09-05T17:52:18.250Z,24.70
2022-09-05T17:54:49.553Z,24.60
2022-09-05T17:57:48.984Z,24.50
2022-09-05T18:01:05.475Z,24.30
2022-09-05T18:04:34.882Z,24.30
2022-09-05T18:07:42.792Z,24.20
2022-09-05T18:16:12.928Z,24.00
2022-09-05T18:19:33.468Z,23.90
2022-09-05T18:21:54.264Z,23.80
2022-09-05T18:24:33.386Z,23.70
2022-09-05T18:27:43.808Z,23.60
2022-09-05T18:30:07.196Z,23.40
2022-09-05T18:32:41.551Z,23.40
2022-09-05T18:35:36.744Z,23.50
2022-09-05T18:38:51.710Z,23.40
2022-09-05T18:41:22.136Z,23.30
2022-09-05T18:44:13.061Z,23.30
2022-09-05T18:46:47.323Z,23.20
2022-09-05T18:50:23.259Z,23.00
2022-09-05T18:52:23.598Z,23.00
2022-09-05T18:55:30.071Z,23.00
2022-09-05T18:57:57.947Z,23.10
2022-09-05T19:00:46.596Z,23.20
2022-09-05T19:03:18.995Z,23.10
2022-09-05T19:05:51.784Z,23.10
2022-09-05T19:08:28.874Z,23.00
2022-09-05T19:11:28.123Z,22.80
2022-09-05T19:14:16.255Z,22.80
2022-09-05T19:16:48.504Z,22.70
2022-09-05T19:19:24.977Z,22.60
2022-09-05T19:22:36.102Z,22.50
2022-09-05T19:24:46.948Z,22.40
2022-09-05T19:28:26.332Z,22.30
2022-09-05T19:36:45.840Z,22.30
2022-09-05T19:36:54.645Z,22.20
2022-09-05T19:37:07.576Z,22.20
2022-09-05T19:40:07.711Z,22.10
2022-09-05T19:47:34.928Z,22.00
2022-09-05T19:47:39.126Z,21.90
2022-09-05T19:47:57.561Z,21.80
2022-09-05T19:50:21.878Z,21.80
2022-09-05T19:52:53.319Z,21.80
2022-09-05T19:55:23.972Z,21.60
2022-09-05T19:57:58.316Z,21.50
2022-09-05T20:00:50.428Z,21.40
2022-09-05T20:03:39.542Z,21.30
2022-09-05T20:06:29.357Z,21.20
2022-09-05T20:09:15.931Z,21.20
2022-09-05T20:11:49.585Z,21.30
2022-09-05T20:14:24.161Z,21.10
2022-09-05T20:16:57.085Z,21.10
2022-09-05T20:19:32.050Z,21.10
2022-09-05T20:22:46.694Z,21.00
2022-09-05T20:25:01.739Z,21.00
2022-09-05T20:27:31.553Z,21.00
2022-09-05T20:30:02.374Z,20.90
2022-09-05T20:32:39.648Z,20.80
2022-09-05T20:38:58.354Z,20.80
2022-09-05T20:43:09.907Z,20.90
2022-09-05T20:43:24.767Z,21.00
2022-09-05T20:43:53.545Z,21.00
2022-09-05T20:52:42.371Z,21.10
2022-09-05T20:54:06.414Z,21.00
2022-09-05T20:54:16.437Z,21.00
2022-09-05T20:55:40.334Z,21.00
2022-09-05T20:58:12.020Z,20.90
2022-09-05T21:01:20.440Z,20.80
2022-09-05T21:03:36.759Z,20.80
2022-09-05T21:06:20.041Z,20.80
2022-09-05T21:08:48.364Z,20.70
2022-09-05T21:11:17.296Z,20.70
2022-09-05T21:13:53.215Z,20.70
2022-09-05T21:16:27.964Z,20.70
2022-09-05T21:18:56.360Z,20.70
2022-09-05T21:21:29.891Z,20.70
2022-09-05T21:24:15.840Z,20.70
2022-09-05T21:26:44.376Z,20.60
2022-09-05T21:29:17.628Z,20.50
2022-09-05T21:31:54.842Z,20.60
2022-09-05T21:34:28.092Z,20.50
2022-09-05T21:37:07.215Z,20.40
2022-09-05T21:39:40.365Z,20.40
2022-09-05T21:45:15.461Z,20.30
2022-09-05T21:45:50.548Z,20.30
2022-09-05T21:48:04.933Z,20.30
2022-09-05T21:50:37.693Z,20.30
2022-09-05T21:53:32.477Z,20.20
2022-09-05T21:59:26.444Z,20.10
2022-09-05T21:59:27.448Z,20.10
2022-09-05T22:01:51.912Z,20.10
2022-09-05T22:04:22.111Z,20.00
2022-09-05T22:06:53.148Z,20.00
2022-09-05T22:09:24.198Z,20.00
2022-09-05T22:11:52.730Z,19.90
2022-09-05T22:14:23.462Z,19.90
2022-09-05T22:16:54.533Z,19.80
2022-09-05T22:19:37.240Z,19.80
2022-09-05T22:22:15.804Z,19.80
2022-09-05T22:24:50.027Z,19.80
2022-09-05T22:27:20.126Z,19.80
2022-09-05T22:29:50.842Z,19.70
2022-09-05T22:32:33.860Z,19.70
2022-09-05T22:35:16.020Z,19.60
2022-09-05T22:37:59.348Z,19.50
2022-09-05T22:40:31.048Z,19.40
2022-09-05T22:43:00.788Z,19.50
2022-09-05T22:45:29.991Z,19.50
2022-09-05T22:47:58.186Z,19.50
2022-09-05T22:50:27.134Z,19.40
2022-09-05T22:52:55.359Z,19.30
2022-09-05T22:55:23.542Z,19.30
2022-09-05T22:57:53.091Z,19.30
2022-09-05T23:00:21.437Z,19.30
2022-09-05T23:02:52.823Z,19.30
2022-09-05T23:05:22.761Z,19.30
2022-09-05T23:07:51.014Z,19.30
2022-09-05T23:10:19.376Z,19.30
2022-09-05T23:12:47.595Z,19.40
2022-09-05T23:15:17.537Z,19.30
2022-09-05T23:17:45.987Z,19.40
2022-09-05T23:20:14.198Z,19.40
2022-09-05T23:22:43.166Z,19.40
2022-09-05T23:25:11.977Z,19.60
2022-09-05T23:27:40.383Z,19.60
2022-09-05T23:30:09.925Z,19.50
2022-09-05T23:32:45.306Z,19.50
2022-09-05T23:35:13.815Z,19.40
2022-09-05T23:37:44.288Z,19.40
2022-09-05T23:40:13.716Z,19.30
2022-09-05T23:42:42.272Z,19.30
2022-09-05T23:45:11.498Z,19.20
2022-09-05T23:47:41.127Z,19.20
2022-09-05T23:50:11.953Z,19.10
2022-09-05T23:52:40.819Z,19.10
2022-09-05T23:55:09.968Z,19.10
2022-09-05T23:57:38.458Z,19.10
